Weather observations for the past three days for
Farmville
Metric (Imperial)
Date Time (edt) Wind (kph) Vis. (km) Weather Sky Cond. Temperature (ºC) Relative Humidity Wind Chill (°C) Heat Index (°C) Pressure Precipitation (cm)
Air Dwpt 6 hour altimeter (cm) sea level (mb) 1 hr 3 hr 6 hr
Max. Min.
31 17:55 E 9 16.09 Fair CLR 35.2 24.1 53% 42 76.3 0.0
31 17:35 Calm 16.09 Fair CLR 35.3 23.5 50% 42 76.3 0.0
31 17:15 Calm 16.09 Fair CLR 35.6 23.3 49% 42 76.3 0.0
31 16:55 E 7 0.00 NULL NULL 35.5 24 51% 42 76.3 0.0
31 16:35 Calm 16.09 Partly Cloudy SCT120 34.2 23.5 54% 40 76.33 0.0
31 16:15 Calm 16.09 Partly Cloudy SCT120 35.3 23.9 52% 42 76.33 0.0
31 15:55 Calm 16.09 Partly Cloudy SCT055 32.9 24.7 62% 40 76.33 0.0
31 15:35 E 6 16.09 Fair CLR 34 23.9 56% 40 76.35 0.0
31 15:15 Calm 16.09 Fair CLR 34.6 23.7 53% 41 76.35 0.0
31 14:55 E 7 16.09 Fair CLR 35.3 24.1 52% 42 76.38 0.0
31 14:35 NE 6 16.09 Partly Cloudy SCT050 34.1 23.2 53% 40 76.38 0.0
31 14:15 S 6 16.09 Fair CLR 35 23.7 52% 41 76.4 0.0
31 13:55 Calm 16.09 Partly Cloudy SCT055 32.9 23.7 34.7 23.3 58% 39 76.4 0.0
31 13:35 NE 6 2.41 Partly Cloudy with Haze SCT055 34.4 24.2 55% 41 76.43 0.0
31 13:15 NE 11 16.09 Fair CLR 33.8 24.2 57% 41 76.43 0.0
31 12:55 NE 6 16.09 Fair CLR 34.2 24.2 56% 41 76.43 0.0
31 12:35 E 6 16.09 Fair CLR 33.1 24.1 59% 39 76.45 0.0
31 12:15 NE 7 16.09 Fair CLR 33.1 24.3 60% 40 76.48 0.0
31 11:55 NE 7 16.09 Fair CLR 32.5 23.9 61% 38 76.48 0.0
31 11:35 E 6 16.09 Fair CLR 32 23.9 62% 38 76.48 0.0
31 11:15 Calm 16.09 Fair CLR 32.2 23.4 60% 37 76.48 0.0
31 10:55 NE 6 16.09 Partly Cloudy SCT100 31.7 25.3 69% 39 76.48 0.0
31 10:35 Calm 16.09 Mostly Cloudy BKN100 29.8 25.2 76% 36 76.48 0.0
31 10:15 SE 6 16.09 Fair CLR 28.4 24.6 80% 33 76.45 0.0
31 09:55 Calm 16.09 Fair CLR 27.4 23.7 80% 31 76.48 0.0
31 09:35 Calm 16.09 Partly Cloudy SCT065 SCT120 26 23.6 87% 28 76.48 0.0
31 09:15 Calm 16.09 Overcast SCT065 OVC120 25.2 23.7 91% 26 76.48 0.0
31 08:55 Calm 16.09 Overcast OVC120 24.4 23.3 94% 24 76.5 0.0
31 08:35 Calm 16.09 Mostly Cloudy BKN120 24.1 23 94% 23 76.48 0.0
31 08:15 S 6 16.09 Partly Cloudy SCT120 23.6 23 96% 76.48 0.0
31 07:55 Calm 16.09 Partly Cloudy SCT120 23.2 22.9 23.7 21.1 98% 76.48 0.0
31 07:35 S 6 16.09 Fair CLR 22.5 22.4 99% 76.45 0.0
31 07:15 Calm 16.09 Fair CLR 22 22 100% 76.45 0.0
31 06:55 SW 7 16.09 Fair CLR 21.9 21.9 100% 76.43 0.0
31 06:35 Calm 16.09 Fair CLR 21.8 21.8 100% 76.43 0.0
31 06:15 SW 7 16.09 Partly Cloudy SCT110 22 22 100% 76.43 0.0
31 05:55 SW 6 16.09 Mostly Cloudy BKN110 22.2 22.1 99% 76.43 0.0
31 05:35 SW 6 16.09 Overcast OVC110 21.4 21.4 100% 76.43 0.0
31 05:15 Calm 16.09 Partly Cloudy SCT110 22 22 100% 76.43 0.0
31 04:55 Calm 16.09 Partly Cloudy SCT110 21.8 21.8 100% 76.4 0.0
31 04:35 Calm 16.09 Partly Cloudy SCT110 21.4 21.3 99% 76.4 0.0
31 04:15 Calm 16.09 Partly Cloudy SCT110 21.8 21.8 100% 76.4 0.0
31 03:55 Calm 16.09 Partly Cloudy SCT110 21.8 21.8 100% 76.4 0.0
31 03:35 Calm 16.09 Fair CLR 23 22.5 97% 76.43 0.0
31 03:15 Calm 16.09 Fair CLR 21.6 21.5 99% 76.4 0.0
31 02:55 Calm 16.09 Fair CLR 23.3 22.5 95% 76.43 0.0
31 02:35 Calm 16.09 Fair CLR 23.3 22.4 95% 76.43 0.0
31 02:15 Calm 16.09 Fair CLR 23.1 22.4 96% 76.43 0.0
31 01:55 Calm 16.09 Fair CLR 23.2 22.5 28.2 23.1 96% 76.45 0.0
31 01:35 Calm 16.09 Fair CLR 23.2 22.5 96% 76.45 0.0
31 01:15 Calm 16.09 Fair CLR 23.1 22.3 95% 76.45 0.0
31 00:55 Calm 16.09 Fair CLR 24.3 22.6 90% 24 76.48 0.0
31 00:35 Calm 16.09 Fair CLR 23.7 22.4 92% 76.48 0.0
31 00:15 Calm 16.09 Fair CLR 24.8 22.6 88% 25 76.48 0.0
30 23:55 Calm 16.09 Fair CLR 24.5 22.7 90% 25 76.48 0.0
30 23:35 Calm 16.09 Fair CLR 25 22.7 87% 26 76.48 0.0
30 23:15 SW 6 16.09 Fair CLR 25.5 22.7 85% 27 76.48 0.0
30 22:55 S 6 16.09 Fair CLR 25.2 22.7 86% 26 76.48 0.0
30 22:35 Calm 16.09 Fair CLR 25.6 22.9 85% 27 76.5 0.0
30 22:15 S 7 16.09 Fair CLR 25.5 22.8 85% 27 76.48 0.0
30 21:55 S 9 16.09 Fair CLR 26 22.9 83% 28 76.48 0.0
30 21:35 S 6 16.09 Fair CLR 26.1 23.1 84% 28 76.48 0.0
30 21:15 S 6 16.09 Fair CLR 26.5 23.2 82% 29 76.48 0.0
30 20:55 S 6 16.09 Fair CLR 26.8 23.1 80% 29 76.45 0.0
30 20:35 Calm 16.09 Fair CLR 27 23 79% 30 76.45 0.0
30 20:15 Calm 16.09 Fair CLR 27.7 23 76% 31 76.43 0.0
30 19:55 Calm 16.09 Thunderstorm in Vicinity CLR 28.3 23 32.7 28.2 73% 32 76.4 0.0
30 19:35 S 6 16.09 Fair CLR 28.6 23 72% 32 76.4 0.0
30 19:15 S 6 16.09 Fair CLR 29.2 22.8 68% 33 76.4 0.0
30 18:55 S 7 16.09 Fair CLR 30 22.6 65% 34 76.4 0.0
30 18:35 S 7 16.09 Fair CLR 30.9 22.8 62% 35 76.43 0.0
30 18:15 S 11 16.09 Fair CLR 31.9 22.4 57% 36 76.43 0.0
30 17:55 S 11 16.09 Fair CLR 32.5 22 54% 36 76.43 0.0
30 17:35 S 11 16.09 Fair CLR 32.6 22.5 55% 37 76.4 0.0
30 17:15 S 15 16.09 Fair CLR 32.6 21.7 53% 36 76.4 0.0
30 16:55 S 15 16.09 Fair CLR 32.6 22 54% 37 76.4 0.0
30 16:35 S 11 16.09 Fair CLR 32.6 22.8 56% 37 76.43 0.0
30 16:15 S 11 16.09 Fair CLR 32.3 23 58% 37 76.45 0.0
30 15:55 S 15 16.09 Fair CLR 32.2 23.2 59% 37 76.45 0.0
30 15:35 S 11 16.09 Fair CLR 32.1 23.2 59% 37 76.48 0.0
30 15:15 S 9 16.09 Partly Cloudy SCT040 31.7 23.3 61% 37 76.5 0.0
30 14:55 S 13 16.09 Partly Cloudy SCT038 31.8 23.6 62% 37 76.56 0.0
30 14:35 S 7 16.09 Partly Cloudy SCT035 31 23.2 63% 36 76.56 0.0
30 14:15 S 7 16.09 Partly Cloudy SCT033 31 23.6 65% 36 76.61 0.0
30 13:55 S 6 16.09 Mostly Cloudy BKN033 30.5 23.3 30.6 22.2 65% 35 76.63 0.0
30 13:35 S 11 16.09 Mostly Cloudy BKN031 30.3 23.4 67% 35 76.66 0.0
30 13:15 Calm 16.09 Mostly Cloudy BKN029 29.4 23.3 70% 34 76.68 0.0
30 12:55 Calm 16.09 Mostly Cloudy BKN027 28.5 23 72% 32 76.68 0.0
30 12:35 S 7 16.09 Partly Cloudy SCT023 SCT029 29.4 23.5 71% 34 76.68 0.0
30 12:15 S 7 16.09 Mostly Cloudy BKN023 27.9 23.3 76% 31 76.71 0.0
30 11:55 S 9 16.09 Overcast OVC021 28 23.2 75% 31 76.73 0.0
30 11:35 S 9 16.09 Overcast OVC021 27.8 23.7 78% 31 76.73 0.0
30 11:15 S 11 16.09 Overcast OVC017 26.3 23.1 83% 28 76.73 0.0
30 10:55 S 11 16.09 Overcast OVC017 26.2 22.9 82% 28 76.76 0.0
30 10:35 S 11 16.09 Overcast OVC017 25.7 23.4 87% 27 76.76 0.0
30 10:15 S 11 16.09 Overcast OVC015 25.6 23.3 87% 27 76.76 0.0
30 09:55 S 7 16.09 Overcast OVC015 25.7 23.2 86% 27 76.73 0.0
30 09:35 SW 7 16.09 Overcast OVC015 24.8 23.2 91% 25 76.76 0.0
30 09:15 S 6 16.09 Overcast OVC015 24.4 22.9 91% 24 76.78 0.0
30 08:55 Calm 16.09 Overcast OVC015 24 22.9 94% 23 76.78 0.0
30 08:35 Calm 16.09 Overcast OVC013 23.3 22.7 96% 76.78 0.0
30 08:15 Calm 11.27 Overcast OVC013 22.3 22.3 100% 76.78 0.0
30 07:55 S 6 16.09 Overcast OVC013 22.4 22.3 22.5 20.4 99% 76.78 0.0
30 07:35 Calm 16.09 Overcast OVC013 22.2 22.2 100% 76.78 0.0
30 07:15 Calm 11.27 Overcast OVC013 22.1 22 99% 76.76 0.0
30 06:55 Calm 8.05 Fog/Mist OVC011 21.7 21.7 100% 76.73 0.0
30 06:35 Calm 11.27 Overcast OVC011 21.5 21.5 100% 76.73 0.0
30 06:15 Calm 8.05 Fog/Mist OVC011 21.6 21.6 100% 76.73 0.0
30 05:55 Calm 8.05 Fog/Mist OVC011 21.3 21.3 100% 76.71 0.0
30 05:35 Calm 11.27 Overcast OVC011 21.3 21.3 100% 76.71 0.0
30 05:15 Calm 8.05 Fog/Mist OVC011 21.1 21 99% 76.73 0.0
30 04:55 Calm 3.22 Fog/Mist BKN011 20.5 20.5 100% 76.71 0.0
30 04:35 Calm 8.05 Fog/Mist SCT010 SCT019 20.9 20.9 100% 76.71 0.0
30 04:15 Calm 8.05 Fog/Mist SCT010 OVC019 20.8 20.8 100% 76.71 0.0
30 03:55 Calm 11.27 Overcast SCT013 OVC019 21.3 21.3 100% 76.73 0.0
30 03:35 Calm 16.09 Overcast OVC016 21.6 21.6 100% 76.73 0.0
30 03:15 Calm 11.27 Mostly Cloudy BKN018 21.4 21.4 100% 76.73 0.0
30 02:55 Calm 8.05 Fog/Mist SCT018 20.6 20.6 100% 76.73 0.0
30 02:35 Calm 4.83 Fog/Mist SCT003 21.2 21.2 100% 76.73 0.0
30 02:15 Calm 0.80 Fog BKN003 20.6 20.6 100% 76.73 0.0
30 01:55 Calm 11.27 Fair CLR 21.3 21.3 26.2 21.3 100% 76.76 0.0
30 01:35 Calm 16.09 Partly Cloudy SCT019 21.8 21.8 100% 76.76 0.0
30 01:15 Calm 16.09 Partly Cloudy SCT019 22 22 100% 76.76 0.0
30 00:55 Calm 16.09 Partly Cloudy SCT019 22.5 22.1 98% 76.76 0.0
30 00:35 Calm 16.09 Partly Cloudy SCT032 22.1 22.1 100% 76.76 0.0
30 00:15 Calm 11.27 Mostly Cloudy BKN032 22.1 22.1 100% 76.76 0.0
29 23:55 Calm 8.05 Fog/Mist BKN032 22.4 22 98% 76.76 0.0
29 23:35 Calm 16.09 Partly Cloudy SCT030 22.5 22.2 98% 76.76 0.0
29 23:15 Calm 16.09 Fair CLR 22.6 22.2 98% 76.73 0.0
29 22:55 Calm 16.09 Fair CLR 22.7 22.1 96% 76.71 0.0
29 22:35 Calm 16.09 Fair CLR 23.3 22.4 95% 76.71 0.0
29 22:15 Calm 16.09 Fair CLR 23.2 22.5 96% 76.68 0.0
29 21:55 Calm 16.09 Fair CLR 24.5 22.8 90% 25 76.71 0.0
29 21:35 Calm 16.09 Partly Cloudy SCT043 24.6 23 91% 25 76.68 0.0
29 21:15 Calm 16.09 Partly Cloudy SCT041 25.1 23 88% 26 76.66 0.0
29 20:55 Calm 16.09 Partly Cloudy SCT037 25.5 23 86% 27 76.66 0.0
29 20:35 Calm 16.09 Partly Cloudy SCT037 25.5 23 86% 27 76.63 0.0
29 20:15 Calm 16.09 Fair CLR 25.8 23 85% 27 76.61 0.0
29 19:55 NE 6 16.09 Fair CLR 26.2 23 31.6 26.2 83% 28 76.61 0.0
29 19:35 NE 6 16.09 Fair CLR 26.7 23.1 81% 29 76.61 0.0
29 19:15 E 6 16.09 Partly Cloudy SCT040 28 23.1 75% 31 76.58 0.0
29 18:55 NE 11 16.09 Partly Cloudy SCT040 28.9 23 71% 33 76.58 0.0
29 18:35 NE 9 16.09 Fair CLR 30 23 66% 34 76.58 0.0
29 18:15 NE 11 16.09 Fair CLR 30.2 23 65% 34 76.58 0.0
29 17:55 NE 9 16.09 Fair CLR 30.6 22.7 63% 35 76.58 0.0
29 17:35 E 9 16.09 Fair CLR 30.8 22.9 63% 35 76.58 0.0
29 17:15 NE 11 16.09 Fair CLR 30.5 22.8 63% 35 76.61 0.0
29 16:55 NE 9 16.09 Fair CLR 31.1 23.2 63% 36 76.63 0.0
29 16:35 NE 11 16.09 Fair CLR 31.1 23.2 63% 36 76.63 0.0
29 16:15 NE 9 16.09 Partly Cloudy SCT036 SCT041 SCT100 31 23 62% 35 76.66 0.0
29 15:55 Calm 16.09 Partly Cloudy SCT045 SCT100 31.4 22.9 61% 36 76.66 0.0
29 15:35 E 11 16.09 Partly Cloudy SCT045 31.5 23.5 63% 37 76.68 0.0
29 15:15 NE 11 16.09 Partly Cloudy SCT033 SCT045 31.1 23.4 64% 36 76.71 0.0
29 14:55 NE 7 16.09 Partly Cloudy SCT033 30.4 23 65% 35 76.73 0.0
29 14:35 NE 11 16.09 Partly Cloudy SCT031 29.8 23 67% 34 76.73 0.0
29 14:15 NE 7 16.09 Partly Cloudy SCT034 SCT044 SCT050 29.8 23.5 69% 34 76.76 0.0
29 13:55 NE 9 16.09 Mostly Cloudy SCT028 BKN034 BKN046 29.2 23.3 29.7 22.1 71% 33 76.78 0.0
29 13:35 NE 9 16.09 Mostly Cloudy SCT028 BKN034 BKN046 28.4 22.8 72% 32 76.78 0.0
29 12:15 NE 6 16.09 Partly Cloudy SCT023 28.1 22.6 72% 31 76.76 0.0
29 11:55 NE 7 16.09 Fair CLR 27.5 22.7 75% 30 76.78 0.0
29 11:35 NE 11 16.09 Fair CLR 27 22.4 76% 29 76.76 0.0
29 11:15 N 15 16.09 Fair CLR 26.4 22.1 77% 28 76.76 0.0
29 10:55 NE 15 16.09 Fair CLR 26.3 22 77% 28 76.73 0.0
29 10:35 N 13 16.09 Fair CLR 24.7 21.3 81% 25 76.73 0.0
29 10:15 NE 11 16.09 Fair CLR 24.3 20.8 81% 25 76.73 0.0
29 09:55 N 9 16.09 Fair CLR 24.3 20.7 80% 25 76.73 0.0
29 09:35 NE 11 16.09 Fair CLR 23.9 21.1 84% 24 76.73 0.0
29 09:15 N 9 16.09 Fair CLR 23.2 20.4 84% 76.73 0.0
29 08:55 N 11 16.09 Fair CLR 22.9 20.7 87% 76.73 0.0
29 08:35 NE 11 16.09 Fair CLR 22.7 20.7 89% 76.73 0.0
29 08:15 N 9 16.09 Fair CLR 22.3 20.7 91% 76.73 0.0
29 07:35 N 7 16.09 Fair CLR 21.7 21.1 96% 76.68 0.0
29 07:15 N 6 16.09 Fair CLR 21.5 21.2 98% 76.66 0.0
29 06:55 Calm 11.27 Partly Cloudy SCT070 21.5 21.5 100% 76.66 0.0
29 06:35 N 7 6.44 Fog/Mist SCT070 21.5 21.5 100% 76.61 0.0
29 06:15 Calm 8.05 Fog/Mist SCT070 21.4 21.4 100% 76.63 0.0
29 05:55 Calm 6.44 Fog/Mist SCT002 BKN070 20.8 20.8 100% 76.61 0.0
29 05:35 Calm 0.80 Fog BKN002 BKN070 20.6 20.6 100% 76.58 0.0
29 05:15 Calm 0.80 Fog BKN002 20.7 20.7 100% 76.56 0.0
29 04:55 Calm 8.05 Fog/Mist CLR 21.7 21.7 100% 76.56 0.0
29 04:35 Calm 8.05 Fog/Mist SCT001 21.5 21.5 100% 76.53 0.0
29 04:15 S 6 6.44 Fog/Mist CLR 21.1 21.1 100% 76.56 0.0
29 03:55 Calm 8.05 Fog/Mist CLR 21.8 21.8 100% 76.5 0.0
29 03:35 N 6 1.21 Fog/Mist VV005 21.5 21.5 100% 76.5 0.0
29 03:15 Calm 8.05 Fog/Mist CLR 21.9 21.6 98% 76.5 0.0
29 02:55 Calm 16.09 Fair CLR 22.5 22.5 100% 76.48 0.0
29 02:35 N 6 16.09 Fair CLR 23 22.7 98% 76.48 0.0
29 02:15 N 6 16.09 Fair CLR 22.2 22.2 100% 76.48 0.0
29 01:55 Calm 16.09 Fair CLR 23 22.5 26.4 21.5 97% 76.45 0.0
29 01:35 N 7 16.09 Fair CLR 23.1 22.3 95% 76.45 0.0
29 01:15 N 6 16.09 Fair CLR 23 22.2 95% 76.45 0.0
29 00:55 N 6 16.09 Fair CLR 23 22.1 95% 76.45 0.0
29 00:35 N 6 16.09 Fair CLR 22.9 22 95% 76.45 0.0
29 00:15 Calm 16.09 Fair CLR 23 22 94% 76.43 0.0
28 23:55 Calm 16.09 Fair CLR 23.1 22.2 95% 76.43 0.0
28 23:35 N 7 16.09 Fair CLR 23.3 22.3 94% 76.43 0.0
28 23:15 Calm 8.05 Fog/Mist CLR 21.7 21.7 100% 76.4 0.0
28 22:55 Calm 16.09 Fair CLR 22.6 22.3 98% 76.38 0.0
28 22:35 Calm 16.09 Fair CLR 22.9 22.3 96% 76.38 0.0
28 22:15 Calm 16.09 Fair CLR 22.6 22.2 98% 76.4 0.0
28 21:55 Calm 16.09 Fair CLR 23.3 22.6 96% 76.38 0.0
28 21:35 N 6 16.09 Fair CLR 24.6 23 91% 25 76.38 0.0
28 21:15 Calm 16.09 Fair CLR 24.2 22.6 91% 24 76.35 0.0
28 20:55 Calm 16.09 Fair CLR 24.8 22.7 88% 25 76.33 0.0
28 20:35 Calm 16.09 Fair CLR 24.8 22.8 89% 25 76.3 0.0
28 20:15 Calm 16.09 Fair CLR 25.7 23 85% 27 76.3 0.0
28 19:55 Calm 16.09 Fair CLR 26.5 23 81% 29 76.25 0.0
28 19:35 Calm 16.09 Fair CLR 27.3 22.9 77% 30 76.25 0.0
28 19:15 N 6 16.09 Fair CLR 27.5 22.9 76% 30 76.23 0.0
28 18:55 N 6 16.09 Fair CLR 27.9 23.1 75% 31 76.23 0.0
28 18:35 NE 6 16.09 Partly Cloudy SCT110 28.6 23.1 72% 32 76.23 0.0
28 18:15 NE 6 16.09 Partly Cloudy SCT050 SCT065 29.2 23.6 72% 34 76.23 0.0
Date Time (edt) Wind (kph) Vis. (km) Weather Sky Cond. Air Dwpt Max. Min. Relative Humidity Wind Chill (°C) Heat Index (°C) altimeter (cm) sea level (mb) 1 hr 3 hr 6 hr
6 hour
Temperature (ºC) Pressure Precipitation (cm)